Terminal Aerodrome Forecast
Issued by NWS

Home | Current Version | Previous Version | Text Only | Print | Product List | Glossary On
Versions: 1 2 3 4 5 6 7 8 9 10 11 12 13 14 15 16 17 18
127
FTUS42 KGSP 202324
TAFAND
TAF
KAND 202324Z 2100/2124 VRB03KT P6SM BKN200
     FM210600 VRB02KT P6SM BKN035
     FM210800 VRB02KT P6SM OVC020
     FM211300 04004KT 6SM -RADZ OVC015
     FM212200 VRB04KT P6SM BKN025=

USA.gov is the U.S. government's official web portal to all federal, state and local government web resources and services.